Time;durP1;ratioP1;P1;durP2;ratioP2;P2;SDS_P1;SDS_P2;PMS_P1;PMS_P2;Temp;Humidity;BMP_temperature;BMP_pressure;BME280_temperature;BME280_humidity;BME280_pressure;Samples;Min_cycle;Max_cycle;Signal;HPM_P1;HPM_P2
2023/09/29 00:00:31;;;;;;;20.80;5.73;;;16.20;99.90;;;;;;5073157;28;20048;-67
2023/09/29 00:02:57;;;;;;;20.97;5.97;;;16.20;99.90;;;;;;5073474;28;20060;-66
2023/09/29 00:05:23;;;;;;;19.63;5.50;;;16.20;99.90;;;;;;5073517;28;20063;-67
2023/09/29 00:07:51;;;;;;;21.97;5.80;;;16.20;99.90;;;;;;5072315;28;20053;-66
2023/09/29 00:10:17;;;;;;;20.77;6.13;;;16.20;99.90;;;;;;5073322;28;20052;-67
2023/09/29 00:12:44;;;;;;;18.47;5.50;;;16.20;99.90;;;;;;5072970;28;20048;-66
2023/09/29 00:15:10;;;;;;;17.40;5.73;;;16.20;99.90;;;;;;5073413;28;20477;-66
2023/09/29 00:17:37;;;;;;;20.00;6.50;;;16.20;99.90;;;;;;5071692;28;20056;-66
2023/09/29 00:22:39;;;;;;;21.13;6.10;;;16.20;99.90;;;;;;5073471;28;20476;-66
2023/09/29 00:25:06;;;;;;;22.90;6.00;;;16.20;99.90;;;;;;5073417;28;20403;-66
2023/09/29 00:27:31;;;;;;;17.87;5.50;;;16.20;99.90;;;;;;5072040;28;20079;-66
2023/09/29 00:29:57;;;;;;;18.43;5.87;;;16.20;99.90;;;;;;5073369;28;20141;-66
2023/09/29 00:32:23;;;;;;;16.70;5.53;;;16.20;99.90;;;;;;5074139;28;20052;-67
2023/09/29 00:34:48;;;;;;;16.87;5.47;;;16.20;99.90;;;;;;5071991;28;20053;-67
2023/09/29 00:37:15;;;;;;;18.17;5.67;;;16.20;99.90;;;;;;5073285;28;20063;-66
2023/09/29 00:39:41;;;;;;;16.37;5.13;;;16.20;99.90;;;;;;5073732;28;20053;-66
2023/09/29 00:42:06;;;;;;;17.93;4.83;;;16.20;99.90;;;;;;5073508;28;20122;-66
2023/09/29 00:44:33;;;;;;;18.27;5.57;;;16.20;99.90;;;;;;5073709;28;20033;-67
2023/09/29 00:47:00;;;;;;;21.13;5.50;;;16.20;99.90;;;;;;5073071;28;20059;-66
2023/09/29 00:49:29;;;;;;;19.83;5.27;;;16.20;99.90;;;;;;5071724;28;20044;-66
2023/09/29 00:52:03;;;;;;;18.33;5.07;;;16.20;99.90;;;;;;5072482;28;20044;-66
2023/09/29 00:54:33;;;;;;;20.73;5.07;;;16.20;99.90;;;;;;5073919;28;20381;-66
2023/09/29 00:57:00;;;;;;;20.73;5.13;;;16.20;99.90;;;;;;5072511;28;20045;-66
2023/09/29 00:59:27;;;;;;;17.63;5.63;;;16.20;99.90;;;;;;5073032;28;20323;-66
2023/09/29 01:01:53;;;;;;;16.70;5.77;;;16.10;99.90;;;;;;5072201;28;20403;-66
2023/09/29 01:04:19;;;;;;;18.03;5.23;;;16.20;99.90;;;;;;5073268;28;20131;-66
2023/09/29 01:06:49;;;;;;;14.73;4.87;;;16.20;99.90;;;;;;5071148;28;20080;-66
2023/09/29 01:09:15;;;;;;;17.47;5.17;;;16.10;99.90;;;;;;5071997;28;20443;-66
2023/09/29 01:11:45;;;;;;;15.13;4.70;;;16.10;99.90;;;;;;5072704;28;20131;-67
2023/09/29 01:14:11;;;;;;;22.30;5.30;;;16.10;99.90;;;;;;5072912;28;20044;-66
2023/09/29 01:16:41;;;;;;;16.93;4.57;;;16.10;99.90;;;;;;5072350;28;20060;-66
2023/09/29 01:19:13;;;;;;;16.80;4.30;;;16.10;99.90;;;;;;5072896;28;20044;-66
2023/09/29 01:21:45;;;;;;;20.10;5.87;;;16.10;99.90;;;;;;5072831;28;20133;-66
2023/09/29 01:24:11;;;;;;;19.53;4.73;;;16.10;99.90;;;;;;5072395;28;20041;-66
2023/09/29 01:26:38;;;;;;;20.37;5.60;;;16.10;99.90;;;;;;5072380;28;20048;-66
2023/09/29 01:29:03;;;;;;;22.30;4.90;;;16.20;99.90;;;;;;5075601;28;20066;-66
2023/09/29 01:31:31;;;;;;;19.57;4.97;;;16.10;99.90;;;;;;5076741;28;20044;-67
2023/09/29 01:33:57;;;;;;;16.90;4.87;;;16.10;99.90;;;;;;5075587;28;20477;-66
2023/09/29 01:36:24;;;;;;;21.50;5.70;;;16.20;99.90;;;;;;5075537;28;20047;-66
2023/09/29 01:38:50;;;;;;;22.87;5.87;;;16.20;99.90;;;;;;5075540;28;20492;-67
2023/09/29 01:41:15;;;;;;;17.37;5.40;;;16.10;99.90;;;;;;5075966;28;20097;-66
2023/09/29 01:43:41;;;;;;;20.63;4.77;;;16.20;99.90;;;;;;5075827;28;20037;-67
2023/09/29 01:46:10;;;;;;;18.53;5.20;;;16.10;99.90;;;;;;5075917;28;20500;-66
2023/09/29 01:48:35;;;;;;;20.40;5.13;;;16.20;99.90;;;;;;5075878;28;20049;-66
2023/09/29 01:51:05;;;;;;;17.73;5.83;;;16.20;99.90;;;;;;5076088;28;20110;-66
2023/09/29 01:53:30;;;;;;;19.67;4.67;;;16.20;99.90;;;;;;5074744;28;20119;-67
2023/09/29 01:55:57;;;;;;;20.27;5.17;;;16.20;99.90;;;;;;5076014;28;20091;-67
2023/09/29 01:58:23;;;;;;;16.77;5.17;;;16.20;99.90;;;;;;5076003;28;20070;-67
2023/09/29 02:00:49;;;;;;;17.00;5.37;;;16.20;99.90;;;;;;5074543;28;20057;-67
2023/09/29 02:03:16;;;;;;;18.13;4.83;;;16.20;99.90;;;;;;5075897;28;20044;-67
2023/09/29 02:05:42;;;;;;;19.97;5.03;;;16.20;99.90;;;;;;5075655;28;20105;-67
2023/09/29 02:08:10;;;;;;;18.87;5.10;;;16.20;99.90;;;;;;5075699;28;20145;-67
2023/09/29 02:10:36;;;;;;;22.80;5.90;;;16.20;99.90;;;;;;5075675;28;20127;-67
2023/09/29 02:13:07;;;;;;;20.73;4.53;;;16.20;99.90;;;;;;5075582;28;20040;-67
2023/09/29 02:15:35;;;;;;;17.03;5.03;;;16.20;99.90;;;;;;5075329;28;20045;-67
2023/09/29 02:18:02;;;;;;;15.40;4.63;;;16.30;99.90;;;;;;5076505;28;20440;-67
2023/09/29 02:20:30;;;;;;;15.80;4.37;;;16.20;99.90;;;;;;5075231;28;20083;-67
2023/09/29 02:22:57;;;;;;;16.03;4.80;;;16.30;99.90;;;;;;5075493;28;20446;-67
2023/09/29 02:25:26;;;;;;;21.27;6.37;;;16.20;99.90;;;;;;5075242;28;20527;-67
2023/09/29 02:27:54;;;;;;;13.17;4.70;;;16.20;99.90;;;;;;5075412;28;20494;-67
2023/09/29 02:30:20;;;;;;;15.43;5.03;;;16.20;99.90;;;;;;5075129;28;20465;-67
2023/09/29 02:32:46;;;;;;;17.75;5.45;;;16.20;99.90;;;;;;5075265;28;20127;-67
2023/09/29 02:35:12;;;;;;;15.00;4.63;;;16.20;99.90;;;;;;5074953;28;20500;-67
2023/09/29 02:37:38;;;;;;;16.83;5.03;;;16.20;99.90;;;;;;5075203;28;20055;-67
2023/09/29 02:40:07;;;;;;;16.37;4.50;;;16.20;99.90;;;;;;5074150;28;20052;-67
2023/09/29 02:42:33;;;;;;;17.37;4.07;;;16.20;99.90;;;;;;5074131;28;20127;-67
2023/09/29 02:44:58;;;;;;;18.03;4.97;;;16.20;99.90;;;;;;5074078;28;20088;-67
2023/09/29 02:47:25;;;;;;;15.83;5.23;;;16.20;99.90;;;;;;5075542;28;20045;-67
2023/09/29 02:49:50;;;;;;;19.50;4.27;;;16.20;99.90;;;;;;5074910;28;20052;-67
2023/09/29 02:52:16;;;;;;;17.67;4.50;;;16.20;99.90;;;;;;5074409;28;20045;-67
2023/09/29 02:54:42;;;;;;;18.90;5.50;;;16.20;99.90;;;;;;5074736;28;20039;-67
2023/09/29 02:57:08;;;;;;;15.80;4.40;;;16.20;99.90;;;;;;5074703;28;20393;-67
2023/09/29 02:59:37;;;;;;;15.90;4.50;;;16.20;99.90;;;;;;5073462;28;20178;-67
2023/09/29 03:02:04;;;;;;;19.00;4.33;;;16.20;99.90;;;;;;5075280;28;20287;-67
2023/09/29 03:04:30;;;;;;;17.53;4.73;;;16.20;99.90;;;;;;5074628;28;20044;-67
2023/09/29 03:06:59;;;;;;;17.20;4.53;;;16.20;99.90;;;;;;5074609;28;20056;-67
2023/09/29 03:09:25;;;;;;;17.03;4.33;;;16.20;99.90;;;;;;5074466;28;20049;-67
2023/09/29 03:11:51;;;;;;;16.30;4.17;;;16.20;99.90;;;;;;5074517;28;20041;-67
2023/09/29 03:14:17;;;;;;;16.77;4.77;;;16.20;99.90;;;;;;5074428;28;20086;-67
2023/09/29 03:16:43;;;;;;;16.00;5.07;;;16.20;99.90;;;;;;5074653;28;20056;-67
2023/09/29 03:19:09;;;;;;;21.70;5.17;;;16.30;99.90;;;;;;5074417;28;20140;-67
2023/09/29 03:21:35;;;;;;;18.30;5.40;;;16.30;99.90;;;;;;5075174;28;20079;-67
2023/09/29 03:24:04;;;;;;;15.37;3.80;;;16.30;99.90;;;;;;5074481;28;20447;-67
2023/09/29 03:26:31;;;;;;;16.33;4.37;;;16.30;99.90;;;;;;5074051;28;20044;-67
2023/09/29 03:28:57;;;;;;;19.23;4.43;;;16.30;99.90;;;;;;5073256;28;20393;-67
2023/09/29 03:31:23;;;;;;;13.10;4.10;;;16.30;99.90;;;;;;5074168;28;20044;-67
2023/09/29 03:33:49;;;;;;;12.63;3.83;;;16.30;99.90;;;;;;5073962;28;20040;-67
2023/09/29 03:36:15;;;;;;;14.57;3.90;;;16.30;99.90;;;;;;5073744;28;20127;-67
2023/09/29 03:38:41;;;;;;;17.97;4.33;;;16.40;99.90;;;;;;5073967;28;20124;-67
2023/09/29 03:41:10;;;;;;;15.60;4.07;;;16.40;99.90;;;;;;5074272;28;20198;-67
2023/09/29 03:43:36;;;;;;;22.83;4.60;;;16.40;99.90;;;;;;5073900;28;20072;-67
2023/09/29 03:46:02;;;;;;;13.87;4.33;;;16.40;99.90;;;;;;5073577;28;20479;-67
2023/09/29 03:48:28;;;;;;;17.90;4.83;;;16.40;99.90;;;;;;5074427;28;20115;-67
2023/09/29 03:50:54;;;;;;;14.60;3.93;;;16.50;99.90;;;;;;5073532;28;20084;-67
2023/09/29 03:53:21;;;;;;;15.67;4.10;;;16.50;99.90;;;;;;5073718;28;20074;-67
2023/09/29 03:55:47;;;;;;;17.40;4.60;;;16.50;99.90;;;;;;5072542;28;20109;-67
2023/09/29 03:58:16;;;;;;;15.17;4.60;;;16.50;99.90;;;;;;5073724;28;20127;-67
2023/09/29 04:00:42;;;;;;;15.67;4.70;;;16.50;99.90;;;;;;5072805;28;20048;-67
2023/09/29 04:03:08;;;;;;;18.27;4.57;;;16.50;99.90;;;;;;5073684;28;20044;-67
2023/09/29 04:05:33;;;;;;;20.43;5.43;;;16.60;99.90;;;;;;5074201;28;20048;-67
2023/09/29 04:08:01;;;;;;;14.43;4.20;;;16.60;99.90;;;;;;5074199;28;20381;-67
2023/09/29 04:10:27;;;;;;;15.33;4.93;;;16.60;99.90;;;;;;5072919;28;20064;-67
2023/09/29 04:12:54;;;;;;;14.87;4.27;;;16.60;99.90;;;;;;5073501;28;20083;-67
2023/09/29 04:15:20;;;;;;;15.37;4.17;;;16.60;99.90;;;;;;5073145;28;20497;-67
2023/09/29 04:17:46;;;;;;;18.10;4.50;;;16.60;99.90;;;;;;5073136;28;20059;-67
2023/09/29 04:20:12;;;;;;;15.63;4.70;;;16.70;99.90;;;;;;5072891;28;20045;-67
2023/09/29 04:22:38;;;;;;;16.20;4.53;;;16.70;99.90;;;;;;5074040;28;20051;-67
2023/09/29 04:25:09;;;;;;;23.33;5.77;;;16.70;99.90;;;;;;5073456;28;20049;-67
2023/09/29 04:27:35;;;;;;;14.70;4.50;;;16.60;99.90;;;;;;5072837;28;20449;-67
2023/09/29 04:30:05;;;;;;;14.60;4.87;;;16.70;99.90;;;;;;5073691;28;20080;-67
2023/09/29 04:32:31;;;;;;;14.77;4.63;;;16.70;99.90;;;;;;5073674;28;20048;-67
2023/09/29 04:34:56;;;;;;;18.17;5.10;;;16.70;99.90;;;;;;5073301;28;20496;-67
2023/09/29 04:37:22;;;;;;;17.00;5.10;;;16.70;99.90;;;;;;5073385;28;20097;-67
2023/09/29 04:39:48;;;;;;;14.03;4.40;;;16.70;99.90;;;;;;5074109;28;20447;-67
2023/09/29 04:42:14;;;;;;;17.17;5.33;;;16.70;99.90;;;;;;5073063;28;20048;-67
2023/09/29 04:44:40;;;;;;;18.97;5.00;;;16.70;99.90;;;;;;5073418;28;20060;-67
2023/09/29 04:47:07;;;;;;;15.43;4.70;;;16.70;99.90;;;;;;5073254;28;20131;-67
2023/09/29 04:49:33;;;;;;;15.43;4.47;;;16.70;99.90;;;;;;5073258;28;20048;-67
2023/09/29 04:51:58;;;;;;;14.93;4.80;;;16.70;99.90;;;;;;5073134;28;20063;-67
2023/09/29 04:54:24;;;;;;;14.20;3.93;;;16.70;99.90;;;;;;5072167;28;20362;-67
2023/09/29 04:56:51;;;;;;;19.33;5.50;;;16.70;99.90;;;;;;5073181;28;20041;-67
2023/09/29 04:59:17;;;;;;;17.17;5.20;;;16.70;99.90;;;;;;5073609;28;20048;-67
2023/09/29 05:01:43;;;;;;;13.57;4.60;;;16.70;99.90;;;;;;5073140;28;20040;-67
2023/09/29 05:04:09;;;;;;;15.20;4.93;;;16.70;99.90;;;;;;5076666;28;20199;-67
2023/09/29 05:06:35;;;;;;;20.23;4.93;;;16.70;99.90;;;;;;5077031;28;20496;-67
2023/09/29 05:09:01;;;;;;;17.47;4.97;;;16.70;99.90;;;;;;5076886;28;20051;-67
2023/09/29 05:11:27;;;;;;;16.27;4.57;;;16.70;99.90;;;;;;5076868;28;20068;-67
2023/09/29 05:13:54;;;;;;;17.53;5.23;;;16.70;99.90;;;;;;5077350;28;20097;-67
2023/09/29 05:16:20;;;;;;;15.23;5.27;;;16.70;99.90;;;;;;5075413;28;20067;-68
2023/09/29 05:18:48;;;;;;;18.10;6.10;;;16.60;99.90;;;;;;5077596;28;20075;-67
2023/09/29 05:21:14;;;;;;;20.93;5.87;;;16.60;99.90;;;;;;5074667;28;20408;-67
2023/09/29 05:23:41;;;;;;;15.87;4.57;;;16.60;99.90;;;;;;5076691;28;20045;-67
2023/09/29 05:26:07;;;;;;;15.43;4.77;;;16.60;99.90;;;;;;5076597;28;20044;-68
2023/09/29 05:28:39;;;;;;;15.33;4.43;;;16.50;99.90;;;;;;5077076;28;20045;-67
2023/09/29 05:31:05;;;;;;;19.33;5.80;;;16.50;99.90;;;;;;5077313;28;20066;-67
2023/09/29 05:33:31;;;;;;;14.60;5.17;;;16.50;99.90;;;;;;5075769;28;20532;-67
2023/09/29 05:35:57;;;;;;;15.87;5.30;;;16.50;99.90;;;;;;5074941;28;20036;-68
2023/09/29 05:38:23;;;;;;;11.47;4.80;;;16.50;99.90;;;;;;5076443;28;20059;-67
2023/09/29 05:40:52;;;;;;;14.60;5.03;;;16.50;99.90;;;;;;5076389;28;20044;-67
2023/09/29 05:43:18;;;;;;;16.60;5.20;;;16.50;99.90;;;;;;5075160;28;20066;-67
2023/09/29 05:45:48;;;;;;;12.57;5.00;;;16.50;99.90;;;;;;5076775;28;20136;-67
2023/09/29 05:48:14;;;;;;;17.63;6.30;;;16.50;99.90;;;;;;5076119;28;20048;-67
2023/09/29 05:50:40;;;;;;;14.27;4.93;;;16.50;99.90;;;;;;5076228;28;20052;-67
2023/09/29 05:53:06;;;;;;;15.80;5.13;;;16.50;99.90;;;;;;5075730;28;20055;-67
2023/09/29 05:55:32;;;;;;;15.63;4.67;;;16.50;99.90;;;;;;5076424;28;20045;-67
2023/09/29 05:57:58;;;;;;;15.70;6.10;;;16.60;99.90;;;;;;5076157;28;20481;-68
2023/09/29 06:00:25;;;;;;;18.80;5.67;;;16.60;99.90;;;;;;5076252;28;20454;-68
2023/09/29 06:02:51;;;;;;;15.03;5.80;;;16.50;99.90;;;;;;5076011;28;20123;-68
2023/09/29 06:05:17;;;;;;;16.53;5.60;;;16.50;99.90;;;;;;5075911;28;20048;-67
2023/09/29 06:07:43;;;;;;;16.67;5.80;;;16.50;99.90;;;;;;5076426;28;20044;-67
2023/09/29 06:10:10;;;;;;;14.70;4.87;;;16.50;99.90;;;;;;5075818;28;20044;-67
2023/09/29 06:12:36;;;;;;;12.47;4.43;;;16.50;99.90;;;;;;5075739;28;20040;-67
2023/09/29 06:15:01;;;;;;;13.87;4.87;;;16.50;99.90;;;;;;5075798;28;20090;-67
2023/09/29 06:17:27;;;;;;;18.83;5.80;;;16.40;99.90;;;;;;5075543;28;20060;-67
2023/09/29 06:19:53;;;;;;;17.83;5.13;;;16.40;99.90;;;;;;5075247;28;20128;-67
2023/09/29 06:22:19;;;;;;;21.00;6.40;;;16.50;99.90;;;;;;5076472;28;20086;-67
2023/09/29 06:24:45;;;;;;;14.90;5.40;;;16.50;99.90;;;;;;5075073;28;20036;-67
2023/09/29 06:27:14;;;;;;;16.10;5.67;;;16.50;99.90;;;;;;5076132;28;20047;-67
2023/09/29 06:29:40;;;;;;;15.10;5.30;;;16.50;99.90;;;;;;5076406;28;20040;-67
2023/09/29 06:32:08;;;;;;;17.90;5.50;;;16.50;99.90;;;;;;5075008;28;20373;-67
2023/09/29 06:34:37;;;;;;;15.10;5.97;;;16.50;99.90;;;;;;5075410;28;20145;-67
2023/09/29 06:37:03;;;;;;;13.53;5.00;;;16.60;99.90;;;;;;5075835;28;20130;-67
2023/09/29 06:39:29;;;;;;;15.87;5.73;;;16.60;99.90;;;;;;5074107;28;20045;-67
2023/09/29 06:41:55;;;;;;;17.20;5.67;;;16.60;99.90;;;;;;5075349;28;20434;-66
2023/09/29 06:44:22;;;;;;;17.00;5.97;;;16.60;99.90;;;;;;5073963;28;20052;-67
2023/09/29 06:46:48;;;;;;;14.53;5.33;;;16.60;99.90;;;;;;5075077;28;20044;-67
2023/09/29 06:49:13;;;;;;;11.33;4.93;;;16.70;99.90;;;;;;5075083;28;20135;-67
2023/09/29 06:51:39;;;;;;;15.77;5.90;;;16.70;99.90;;;;;;5073925;28;20131;-67
2023/09/29 06:54:05;;;;;;;17.77;5.47;;;16.70;99.90;;;;;;5074787;28;20078;-67
2023/09/29 06:56:31;;;;;;;12.83;5.50;;;16.70;99.90;;;;;;5074936;28;20531;-67
2023/09/29 06:58:57;;;;;;;14.20;5.20;;;16.80;99.90;;;;;;5074969;28;20103;-67
2023/09/29 07:01:29;;;;;;;14.67;5.80;;;16.80;99.90;;;;;;5074902;28;20102;-67
2023/09/29 07:03:54;;;;;;;12.73;5.40;;;16.80;99.90;;;;;;5074120;28;20048;-69
2023/09/29 07:06:24;;;;;;;12.97;4.80;;;16.90;99.90;;;;;;5074910;28;20055;-67
2023/09/29 07:08:50;;;;;;;12.80;5.03;;;16.90;99.90;;;;;;5073611;28;20052;-67
2023/09/29 07:11:16;;;;;;;12.27;4.70;;;16.90;99.90;;;;;;5074527;28;20533;-67
2023/09/29 07:13:42;;;;;;;13.23;5.00;;;17.00;99.90;;;;;;5090289;28;20082;-67
2023/09/29 07:16:08;;;;;;;13.67;5.07;;;17.10;99.90;;;;;;5075015;28;20052;-66
2023/09/29 07:18:34;;;;;;;16.30;5.27;;;17.10;99.90;;;;;;5074496;28;20512;-66
2023/09/29 07:21:00;;;;;;;11.23;5.10;;;17.10;99.90;;;;;;5073862;28;20131;-66
2023/09/29 07:23:25;;;;;;;12.93;4.80;;;17.20;99.90;;;;;;5075169;28;20098;-66
2023/09/29 07:25:52;;;;;;;14.17;5.20;;;17.20;99.90;;;;;;5073828;28;20397;-65
2023/09/29 07:28:22;;;;;;;12.30;4.50;;;17.30;99.90;;;;;;5074321;28;20056;-65
2023/09/29 07:30:50;;;;;;;10.47;4.40;;;17.40;99.90;;;;;;5075176;28;20431;-65
2023/09/29 07:33:16;;;;;;;11.13;4.80;;;17.50;99.90;;;;;;5074150;28;20492;-65
2023/09/29 07:35:45;;;;;;;12.13;4.70;;;17.60;99.90;;;;;;5074127;28;20091;-65
2023/09/29 07:38:12;;;;;;;9.97;4.53;;;17.60;99.90;;;;;;5074206;28;20041;-65
2023/09/29 07:40:38;;;;;;;13.07;5.53;;;17.70;99.90;;;;;;5074387;28;20040;-65
2023/09/29 07:43:04;;;;;;;13.03;5.10;;;17.70;99.90;;;;;;5074892;28;20084;-65
2023/09/29 07:45:32;;;;;;;13.00;5.17;;;17.80;99.90;;;;;;5074024;28;20048;-65
2023/09/29 07:47:57;;;;;;;14.40;4.73;;;17.80;99.90;;;;;;5074866;28;20439;-65
2023/09/29 07:50:23;;;;;;;10.67;4.70;;;17.90;99.90;;;;;;5074016;28;20152;-65
2023/09/29 07:52:49;;;;;;;13.57;5.60;;;18.00;99.90;;;;;;5074266;28;20484;-65
2023/09/29 07:55:14;;;;;;;10.67;4.87;;;18.00;99.90;;;;;;5073855;28;20358;-65
2023/09/29 07:57:40;;;;;;;12.80;5.10;;;18.20;99.90;;;;;;5073738;28;20049;-65
2023/09/29 08:00:09;;;;;;;11.33;5.23;;;18.20;99.90;;;;;;5074404;28;20086;-65
2023/09/29 08:02:34;;;;;;;11.03;4.73;;;18.30;99.90;;;;;;5073837;28;20048;-65
2023/09/29 08:05:00;;;;;;;9.60;5.17;;;18.30;99.90;;;;;;5074546;28;20044;-65
2023/09/29 08:07:27;;;;;;;13.17;5.63;;;18.40;99.90;;;;;;5073756;28;20047;-65
2023/09/29 08:09:53;;;;;;;17.90;6.63;;;18.40;99.90;;;;;;5073239;28;20048;-65
2023/09/29 08:12:19;;;;;;;14.47;5.97;;;18.40;99.90;;;;;;5073680;28;20451;-66
2023/09/29 08:14:45;;;;;;;13.30;6.53;;;18.40;99.90;;;;;;5073576;28;20036;-65
2023/09/29 08:17:11;;;;;;;12.63;6.50;;;18.40;99.90;;;;;;5073486;28;20052;-65
2023/09/29 08:19:37;;;;;;;15.00;7.03;;;18.40;99.90;;;;;;5073789;28;20429;-66
2023/09/29 08:22:03;;;;;;;12.87;6.40;;;18.50;99.90;;;;;;5073629;28;20128;-65
2023/09/29 08:24:33;;;;;;;15.07;7.17;;;18.60;99.90;;;;;;5073130;28;20481;-65
2023/09/29 08:27:00;;;;;;;17.77;7.53;;;18.70;99.90;;;;;;5072837;28;20489;-65
2023/09/29 08:29:26;;;;;;;15.73;6.97;;;18.80;99.90;;;;;;5073534;28;20047;-65
2023/09/29 08:31:53;;;;;;;16.23;7.80;;;18.90;99.90;;;;;;5073500;28;20094;-65
2023/09/29 08:34:19;;;;;;;18.10;7.47;;;18.90;99.90;;;;;;5073369;28;20051;-65
2023/09/29 08:36:45;;;;;;;16.87;8.53;;;18.90;99.90;;;;;;5073421;28;20055;-65
2023/09/29 08:39:11;;;;;;;14.73;8.73;;;19.00;99.90;;;;;;5077409;28;20123;-65
2023/09/29 08:41:45;;;;;;;19.87;9.23;;;19.00;99.90;;;;;;5076401;28;20044;-65
2023/09/29 08:44:17;;;;;;;21.80;10.85;;;19.00;99.90;;;;;;5077352;28;20539;-65
2023/09/29 08:46:51;;;;;;;21.57;10.70;;;18.90;99.90;;;;;;5077546;28;20051;-65
2023/09/29 08:49:17;;;;;;;18.00;9.97;;;18.90;99.90;;;;;;5077473;28;20048;-65
2023/09/29 08:51:48;;;;;;;20.93;11.30;;;18.90;99.90;;;;;;5077336;28;20591;-65
2023/09/29 08:54:14;;;;;;;22.23;12.00;;;18.90;99.90;;;;;;5076187;28;20044;-66
2023/09/29 08:56:40;;;;;;;24.73;11.73;;;18.90;99.90;;;;;;5027043;28;20041;-65
2023/09/29 08:59:06;;;;;;;24.73;12.53;;;19.00;99.90;;;;;;5077291;28;20098;-65
2023/09/29 09:01:32;;;;;;;25.70;12.70;;;19.00;99.90;;;;;;5077170;28;20040;-65
2023/09/29 09:03:59;;;;;;;21.90;12.70;;;19.10;99.90;;;;;;5077099;28;20048;-65
2023/09/29 09:06:26;;;;;;;21.13;11.40;;;19.20;99.90;;;;;;5077077;28;20123;-70
2023/09/29 09:08:55;;;;;;;22.73;12.50;;;19.30;99.90;;;;;;5076658;28;20058;-67
2023/09/29 09:11:23;;;;;;;18.47;10.23;;;19.40;99.90;;;;;;5077051;28;20055;-66
2023/09/29 09:14:02;;;;;;;20.20;9.30;;;19.50;99.90;;;;;;5076540;28;20512;-66
2023/09/29 09:16:31;;;;;;;13.50;7.40;;;19.60;99.90;;;;;;5076868;28;20149;-68
2023/09/29 09:19:14;;;;;;;15.93;7.40;;;19.70;99.90;;;;;;5076407;28;20098;-66
2023/09/29 09:21:41;;;;;;;14.67;6.70;;;19.70;99.90;;;;;;5077526;28;20123;-66
2023/09/29 09:24:23;;;;;;;11.30;5.67;;;19.80;99.90;;;;;;5076671;28;20079;-67
2023/09/29 09:26:50;;;;;;;8.80;4.50;;;19.90;99.90;;;;;;5076603;28;20045;-66
2023/09/29 09:29:17;;;;;;;12.10;4.70;;;19.90;99.90;;;;;;5058747;28;20055;-67
2023/09/29 09:31:54;;;;;;;13.63;4.30;;;19.90;99.90;;;;;;5077044;28;20427;-66
2023/09/29 09:34:30;;;;;;;10.13;4.20;;;20.00;99.90;;;;;;5076436;28;20040;-67
2023/09/29 09:36:56;;;;;;;8.43;4.17;;;19.90;99.90;;;;;;5076450;28;20044;-66
2023/09/29 09:39:23;;;;;;;10.17;3.40;;;19.90;99.90;;;;;;5075043;28;20110;-66
2023/09/29 09:41:56;;;;;;;9.47;3.97;;;19.80;99.90;;;;;;5076382;28;20051;-66
2023/09/29 09:44:22;;;;;;;9.80;3.90;;;19.80;99.90;;;;;;5076389;28;20087;-65
2023/09/29 09:47:04;;;;;;;11.60;4.30;;;19.80;99.90;;;;;;5076257;28;20100;-67
2023/09/29 09:49:44;;;;;;;10.73;3.50;;;19.80;99.90;;;;;;5075832;28;20052;-66
2023/09/29 09:52:15;;;;;;;10.87;3.87;;;19.70;99.90;;;;;;5075545;28;20056;-66
2023/09/29 09:54:51;;;;;;;8.37;3.63;;;19.70;99.90;;;;;;5076659;28;20040;-67
2023/09/29 09:57:38;;;;;;;10.33;3.63;;;19.70;99.90;;;;;;5076095;28;20091;-65
2023/09/29 10:00:11;;;;;;;11.30;3.70;;;19.70;99.90;;;;;;5076429;28;20139;-66
2023/09/29 10:02:51;;;;;;;9.47;3.57;;;19.70;99.90;;;;;;5075910;28;20045;-67
2023/09/29 10:05:31;;;;;;;7.73;2.97;;;19.70;99.90;;;;;;5076514;28;20041;-68
2023/09/29 10:08:07;;;;;;;10.90;4.37;;;19.70;99.90;;;;;;5076477;28;20131;-66
2023/09/29 10:10:40;;;;;;;9.67;3.57;;;19.60;99.90;;;;;;5076121;28;20538;-66
2023/09/29 10:13:12;;;;;;;6.73;3.27;;;19.60;99.90;;;;;;5075741;28;20098;-66
2023/09/29 10:15:41;;;;;;;7.00;3.57;;;19.60;99.90;;;;;;5075618;28;20048;-66
2023/09/29 10:18:18;;;;;;;8.93;3.60;;;19.60;99.90;;;;;;5075706;28;20064;-66
2023/09/29 10:20:46;;;;;;;9.00;4.37;;;19.50;99.90;;;;;;5075543;28;20107;-66
2023/09/29 10:23:13;;;;;;;12.53;4.77;;;19.50;99.90;;;;;;5075480;28;20373;-66
2023/09/29 10:25:43;;;;;;;7.30;3.90;;;19.40;99.90;;;;;;5074971;28;20051;-66
2023/09/29 10:28:08;;;;;;;10.47;4.10;;;19.40;99.90;;;;;;5075147;28;20053;-66
2023/09/29 10:30:35;;;;;;;14.37;4.47;;;19.50;99.90;;;;;;5075336;28;20071;-66
2023/09/29 10:33:05;;;;;;;12.13;4.20;;;19.50;99.90;;;;;;5074118;28;20048;-66
2023/09/29 10:35:33;;;;;;;8.77;3.80;;;19.60;99.90;;;;;;5075277;28;20056;-66
2023/09/29 10:38:06;;;;;;;10.40;3.93;;;19.60;99.90;;;;;;5075143;28;20123;-66
2023/09/29 10:40:33;;;;;;;10.30;4.00;;;19.70;99.90;;;;;;5076061;28;20397;-66
2023/09/29 10:43:02;;;;;;;9.53;4.00;;;19.70;99.90;;;;;;5074211;28;20170;-66
2023/09/29 10:45:36;;;;;;;11.70;4.53;;;19.70;99.90;;;;;;5075159;28;20488;-67
2023/09/29 10:48:07;;;;;;;10.23;3.93;;;19.70;99.90;;;;;;5075653;28;20052;-66
2023/09/29 10:50:44;;;;;;;12.23;3.90;;;19.70;99.90;;;;;;5075231;28;20048;-69
2023/09/29 10:53:10;;;;;;;9.40;4.40;;;19.70;99.90;;;;;;5057054;28;20048;-66
2023/09/29 10:55:43;;;;;;;10.67;4.47;;;19.70;99.90;;;;;;5075353;28;20044;-66
2023/09/29 10:58:14;;;;;;;10.07;4.77;;;19.70;99.90;;;;;;5074732;28;20053;-65
2023/09/29 11:00:47;;;;;;;10.33;4.23;;;19.70;99.90;;;;;;5073313;28;20044;-65
2023/09/29 11:03:15;;;;;;;12.17;5.00;;;19.70;99.90;;;;;;5074776;28;20051;-65
2023/09/29 11:05:58;;;;;;;10.43;4.27;;;19.70;99.90;;;;;;5073497;28;20138;-66
2023/09/29 11:08:34;;;;;;;10.10;4.57;;;19.70;99.90;;;;;;5075483;28;20045;-66
2023/09/29 11:11:02;;;;;;;10.30;4.93;;;19.70;99.90;;;;;;5074659;28;20425;-65
2023/09/29 11:13:29;;;;;;;12.97;5.33;;;19.70;99.90;;;;;;5056556;28;20052;-66
2023/09/29 11:15:58;;;;;;;10.13;5.13;;;19.70;99.90;;;;;;5056559;28;20052;-65
2023/09/29 11:18:35;;;;;;;10.30;5.40;;;19.80;99.90;;;;;;5075169;28;20056;-65
2023/09/29 11:21:11;;;;;;;10.63;5.20;;;19.80;99.90;;;;;;5057362;28;20542;-65
2023/09/29 11:23:48;;;;;;;12.13;5.43;;;19.80;99.90;;;;;;5074316;28;20407;-65
2023/09/29 11:26:15;;;;;;;11.13;6.00;;;19.90;99.90;;;;;;5074130;28;20080;-66
2023/09/29 11:28:47;;;;;;;11.20;5.57;;;19.90;99.90;;;;;;5074178;28;20045;-65
2023/09/29 11:31:16;;;;;;;12.27;5.93;;;19.90;99.90;;;;;;5072984;28;20078;-66
2023/09/29 11:33:44;;;;;;;11.43;5.73;;;19.90;99.90;;;;;;5074059;28;20491;-65
2023/09/29 11:36:15;;;;;;;10.33;6.10;;;19.90;99.90;;;;;;5073997;28;20048;-65
2023/09/29 11:38:41;;;;;;;11.00;5.17;;;19.90;99.90;;;;;;5074327;28;20114;-66
2023/09/29 11:41:07;;;;;;;14.70;5.90;;;20.00;99.90;;;;;;5073868;28;20040;-65
2023/09/29 11:43:34;;;;;;;10.83;5.70;;;20.00;99.90;;;;;;5072998;28;20378;-66
2023/09/29 11:46:00;;;;;;;10.50;5.80;;;20.00;99.90;;;;;;5072351;28;20044;-66
2023/09/29 11:48:27;;;;;;;9.53;5.67;;;20.00;99.90;;;;;;5073612;28;20059;-65
2023/09/29 11:50:53;;;;;;;10.03;6.00;;;20.00;99.90;;;;;;5073685;28;20056;-66
2023/09/29 11:53:19;;;;;;;11.97;5.97;;;20.00;99.90;;;;;;5072720;28;20051;-65
2023/09/29 11:55:45;;;;;;;10.43;3.50;;;20.00;99.90;;;;;;5073393;28;20492;-65
2023/09/29 11:58:11;;;;;;;6.40;2.80;;;19.90;99.90;;;;;;5073653;28;20044;-65
2023/09/29 12:00:37;;;;;;;12.03;2.57;;;19.70;99.90;;;;;;5073921;28;20094;-65
2023/09/29 12:03:06;;;;;;;7.33;2.37;;;19.60;99.90;;;;;;5039658;28;20419;-65
2023/09/29 12:05:35;;;;;;;8.40;2.60;;;19.30;99.90;;;;;;5073444;28;20044;-65
2023/09/29 12:08:05;;;;;;;7.43;2.37;;;19.10;99.90;;;;;;5073022;28;20124;-65
2023/09/29 12:10:31;;;;;;;7.73;2.10;;;18.90;99.90;;;;;;5072505;28;20041;-65
2023/09/29 12:13:00;;;;;;;6.90;2.10;;;18.80;99.90;;;;;;5073238;28;20173;-65
2023/09/29 12:15:26;;;;;;;7.00;1.93;;;18.60;99.90;;;;;;5073165;28;20043;-66
2023/09/29 12:17:52;;;;;;;6.20;2.13;;;18.50;99.90;;;;;;5071762;28;20060;-66
2023/09/29 12:20:18;;;;;;;8.53;2.07;;;18.40;99.90;;;;;;5074087;28;20091;-66
2023/09/29 12:22:45;;;;;;;7.80;2.03;;;18.40;99.90;;;;;;5073331;28;20040;-65
2023/09/29 12:25:15;;;;;;;8.80;2.20;;;18.40;99.90;;;;;;5073660;28;20393;-65
2023/09/29 12:27:42;;;;;;;6.43;1.60;;;18.40;99.90;;;;;;5073178;28;20044;-65
2023/09/29 12:30:12;;;;;;;8.33;1.63;;;18.30;99.90;;;;;;5072123;28;20400;-65
2023/09/29 12:32:39;;;;;;;5.53;1.70;;;18.20;99.90;;;;;;5073412;28;20076;-65
2023/09/29 12:35:06;;;;;;;6.70;1.60;;;18.20;99.90;;;;;;5073583;28;20041;-65
2023/09/29 12:37:32;;;;;;;4.43;1.43;;;18.20;99.90;;;;;;5073175;28;20052;-66
2023/09/29 12:39:57;;;;;;;5.27;1.50;;;18.10;99.90;;;;;;5073360;28;20049;-65
2023/09/29 12:42:23;;;;;;;4.27;1.20;;;18.20;99.90;;;;;;5073292;28;20084;-65